createdAt,value
2022-09-22T00:01:54.085Z,22.97
2022-09-22T00:07:01.246Z,22.91
2022-09-22T00:12:08.408Z,22.85
2022-09-22T00:17:15.552Z,22.81
2022-09-22T00:22:22.748Z,22.76
2022-09-22T00:27:30.015Z,22.74
2022-09-22T00:32:37.172Z,22.76
2022-09-22T00:37:44.407Z,22.73
2022-09-22T00:42:51.605Z,22.70
2022-09-22T00:47:58.838Z,22.72
2022-09-22T00:53:06.090Z,22.70
2022-09-22T00:58:13.347Z,22.68
2022-09-22T01:03:20.529Z,22.71
2022-09-22T01:08:27.803Z,22.71
2022-09-22T01:13:35.039Z,22.69
2022-09-22T01:18:42.213Z,22.65
2022-09-22T01:23:51.123Z,22.63
2022-09-22T01:28:58.399Z,22.58
2022-09-22T01:34:05.524Z,22.53
2022-09-22T01:39:12.759Z,22.47
2022-09-22T01:44:20.003Z,22.39
2022-09-22T01:49:27.205Z,22.35
2022-09-22T01:54:34.389Z,22.34
2022-09-22T01:59:41.701Z,22.37
2022-09-22T02:04:48.899Z,22.37
2022-09-22T02:09:56.128Z,22.39
2022-09-22T02:15:03.410Z,22.37
2022-09-22T02:20:10.631Z,22.38
2022-09-22T02:25:17.805Z,22.35
2022-09-22T02:30:25.045Z,22.33
2022-09-22T02:35:32.239Z,22.35
2022-09-22T02:40:39.654Z,22.35
2022-09-22T02:45:46.879Z,22.35
2022-09-22T02:50:54.047Z,22.31
2022-09-22T02:56:01.250Z,22.25
2022-09-22T03:01:08.565Z,22.20
2022-09-22T03:06:15.662Z,22.17
2022-09-22T03:11:22.844Z,22.10
2022-09-22T03:16:30.037Z,22.07
2022-09-22T03:21:37.277Z,22.04
2022-09-22T03:26:44.516Z,22.10
2022-09-22T03:31:51.732Z,22.08
2022-09-22T03:36:59.007Z,22.10
2022-09-22T03:42:06.237Z,22.12
2022-09-22T03:47:13.473Z,22.11
2022-09-22T03:52:20.646Z,22.11
2022-09-22T03:57:27.852Z,22.10
2022-09-22T04:02:35.184Z,22.12
2022-09-22T04:07:42.327Z,22.12
2022-09-22T04:12:49.532Z,22.09
2022-09-22T04:17:56.808Z,22.05
2022-09-22T04:23:03.991Z,22.01
2022-09-22T04:28:11.152Z,21.94
2022-09-22T04:33:18.347Z,21.88
2022-09-22T04:38:25.477Z,21.86
2022-09-22T04:43:32.652Z,21.84
2022-09-22T04:48:39.899Z,21.88
2022-09-22T04:53:47.062Z,21.86
2022-09-22T04:58:54.225Z,21.90
2022-09-22T05:04:01.402Z,21.92
2022-09-22T05:09:08.569Z,21.94
2022-09-22T05:14:15.777Z,21.96
2022-09-22T05:19:22.990Z,21.91
2022-09-22T05:24:30.219Z,21.93
2022-09-22T05:29:37.480Z,21.94
2022-09-22T05:34:44.755Z,21.91
2022-09-22T05:39:51.942Z,21.89
2022-09-22T05:44:59.431Z,21.83
2022-09-22T05:50:06.707Z,21.81
2022-09-22T05:55:13.978Z,21.77
2022-09-22T06:00:21.276Z,21.68
2022-09-22T06:05:28.544Z,21.70
2022-09-22T06:10:35.706Z,21.72
2022-09-22T06:15:42.940Z,21.73
2022-09-22T06:20:50.211Z,21.76
2022-09-22T06:25:57.374Z,21.79
2022-09-22T06:31:04.610Z,21.81
2022-09-22T06:36:11.888Z,21.82
2022-09-22T06:41:19.135Z,21.83
2022-09-22T06:46:26.400Z,21.81
2022-09-22T06:51:33.624Z,21.83
2022-09-22T06:56:40.837Z,21.81
2022-09-22T07:01:48.225Z,21.77
2022-09-22T07:06:55.378Z,21.74
2022-09-22T07:12:02.621Z,21.76
2022-09-22T07:17:09.835Z,21.74
2022-09-22T07:22:17.045Z,21.72
2022-09-22T07:27:24.315Z,21.74
2022-09-22T07:32:31.502Z,21.75
2022-09-22T07:37:38.723Z,21.77
2022-09-22T07:42:45.939Z,21.82
2022-09-22T07:47:53.153Z,21.83
2022-09-22T07:53:00.375Z,21.87
2022-09-22T07:58:07.528Z,21.92
2022-09-22T08:03:14.744Z,21.92
2022-09-22T08:08:22.012Z,21.93
2022-09-22T08:13:29.222Z,21.92
2022-09-22T08:18:36.414Z,21.93
2022-09-22T08:23:43.573Z,21.93
2022-09-22T08:28:50.799Z,21.93
2022-09-22T08:33:57.990Z,21.93
2022-09-22T08:39:05.464Z,21.93
2022-09-22T08:44:12.389Z,21.92
2022-09-22T08:49:19.640Z,21.96
2022-09-22T08:54:26.857Z,22.00
2022-09-22T08:59:34.066Z,22.07
2022-09-22T09:04:41.224Z,22.14
2022-09-22T09:09:48.501Z,22.15
2022-09-22T09:14:55.761Z,22.19
2022-09-22T09:20:02.999Z,22.23
2022-09-22T09:25:28.015Z,22.25
2022-09-22T09:30:17.518Z,22.23
2022-09-22T09:35:24.598Z,22.17
2022-09-22T09:40:31.976Z,22.22
2022-09-22T09:45:39.108Z,22.22
2022-09-22T09:50:46.381Z,22.21
2022-09-22T09:55:53.590Z,22.18
2022-09-22T10:01:00.822Z,22.19
2022-09-22T10:06:08.069Z,22.17
2022-09-22T10:11:15.336Z,22.19
2022-09-22T10:16:22.684Z,22.21
2022-09-22T10:21:29.760Z,22.22
2022-09-22T10:26:37.062Z,22.24
2022-09-22T10:31:44.247Z,22.28
2022-09-22T10:36:51.469Z,22.28
2022-09-22T10:41:58.710Z,22.33
2022-09-22T10:47:05.854Z,22.35
2022-09-22T10:52:12.989Z,22.36
2022-09-22T10:57:20.190Z,22.38
2022-09-22T11:02:27.468Z,22.38
2022-09-22T11:07:34.641Z,22.37
2022-09-22T11:12:41.883Z,22.38
2022-09-22T11:17:49.100Z,22.38
2022-09-22T11:22:56.324Z,22.39
2022-09-22T11:28:03.554Z,22.39
2022-09-22T11:33:10.703Z,22.36
2022-09-22T11:38:17.928Z,22.33
2022-09-22T11:43:25.133Z,22.36
2022-09-22T11:48:32.367Z,22.34
2022-09-22T11:53:39.573Z,22.35
2022-09-22T11:58:46.814Z,22.38
2022-09-22T12:03:54.018Z,22.43
2022-09-22T12:09:01.296Z,22.43
2022-09-22T12:14:08.527Z,22.46
2022-09-22T12:19:15.697Z,22.47
2022-09-22T12:24:22.905Z,22.49
2022-09-22T12:29:30.188Z,22.48
2022-09-22T12:34:37.438Z,22.53
2022-09-22T12:39:44.688Z,22.53
2022-09-22T12:44:51.994Z,22.57
2022-09-22T12:49:59.189Z,22.58
2022-09-22T12:55:06.352Z,22.61
2022-09-22T13:00:13.574Z,22.58
2022-09-22T13:05:20.777Z,22.63
2022-09-22T13:10:28.125Z,22.63
2022-09-22T13:15:35.408Z,22.65
2022-09-22T13:20:42.584Z,22.66
2022-09-22T13:25:49.835Z,22.68
2022-09-22T13:30:57.189Z,22.70
2022-09-22T13:36:04.351Z,22.71
2022-09-22T13:41:11.589Z,22.71
2022-09-22T13:46:18.953Z,22.70
2022-09-22T13:51:26.126Z,22.72
2022-09-22T13:56:33.307Z,22.73
2022-09-22T14:01:40.583Z,22.75
2022-09-22T14:06:47.706Z,22.75
2022-09-22T14:11:54.933Z,22.79
2022-09-22T14:17:02.257Z,22.77
2022-09-22T14:22:09.437Z,22.75
2022-09-22T14:27:16.681Z,22.78
2022-09-22T14:32:23.934Z,22.80
2022-09-22T14:37:31.069Z,22.79
2022-09-22T14:42:38.278Z,22.81
2022-09-22T14:47:45.512Z,22.81
2022-09-22T14:52:52.680Z,22.79
2022-09-22T14:57:59.920Z,22.78
2022-09-22T15:03:07.097Z,22.79
2022-09-22T15:08:14.125Z,22.79
2022-09-22T15:13:21.289Z,22.76
2022-09-22T15:18:30.808Z,22.76
2022-09-22T15:23:35.836Z,22.76
2022-09-22T15:28:43.020Z,22.78
2022-09-22T15:33:50.298Z,22.80
2022-09-22T15:38:57.517Z,22.80
2022-09-22T15:44:04.877Z,22.82
2022-09-22T15:49:12.174Z,22.82
2022-09-22T15:54:19.358Z,22.85
2022-09-22T15:59:26.545Z,22.83
2022-09-22T16:04:33.823Z,22.81
2022-09-22T16:09:40.981Z,22.83
2022-09-22T16:14:48.239Z,22.82
2022-09-22T16:19:55.772Z,22.81
2022-09-22T16:25:02.873Z,22.81
2022-09-22T16:30:10.077Z,22.84
2022-09-22T16:35:17.304Z,22.86
2022-09-22T16:40:24.585Z,22.87
2022-09-22T16:45:31.692Z,22.86
2022-09-22T16:50:38.888Z,22.86
2022-09-22T16:55:46.799Z,22.83
2022-09-22T17:00:53.361Z,22.83
2022-09-22T17:06:00.576Z,22.84
2022-09-22T17:11:07.716Z,22.84
2022-09-22T17:16:14.948Z,22.86
2022-09-22T17:21:22.145Z,22.86
2022-09-22T17:26:29.588Z,22.87
2022-09-22T17:31:36.908Z,22.76
2022-09-22T17:36:44.042Z,22.81
2022-09-22T17:41:51.265Z,22.85
2022-09-22T17:46:58.592Z,22.86
2022-09-22T17:52:05.834Z,22.86
2022-09-22T17:57:13.019Z,22.87
2022-09-22T18:02:20.193Z,22.88
2022-09-22T18:07:27.395Z,22.88
2022-09-22T18:12:34.546Z,22.90
2022-09-22T18:17:41.789Z,22.88
2022-09-22T18:22:49.012Z,22.89
2022-09-22T18:27:56.170Z,23.00
2022-09-22T18:33:03.369Z,23.08
2022-09-22T18:38:10.638Z,23.20
2022-09-22T18:43:17.805Z,23.30
2022-09-22T18:48:25.111Z,23.40
2022-09-22T18:53:32.336Z,23.50
2022-09-22T18:58:39.558Z,23.58
2022-09-22T19:03:46.741Z,23.67
2022-09-22T19:08:53.999Z,23.73
2022-09-22T19:14:01.248Z,23.83
2022-09-22T19:19:08.443Z,23.85
2022-09-22T19:24:15.644Z,23.85
2022-09-22T19:29:23.157Z,23.92
2022-09-22T19:34:30.502Z,23.98
2022-09-22T19:39:38.064Z,24.06
2022-09-22T19:44:45.379Z,24.11
2022-09-22T19:49:53.800Z,24.10
2022-09-22T19:55:00.999Z,24.08
2022-09-22T20:00:08.234Z,24.10
2022-09-22T20:05:15.460Z,24.09
2022-09-22T20:10:22.714Z,24.12
2022-09-22T20:15:29.946Z,24.17
2022-09-22T20:20:37.107Z,24.16
2022-09-22T20:25:44.328Z,24.17
2022-09-22T20:30:51.699Z,24.18
2022-09-22T20:35:58.835Z,24.25
2022-09-22T20:41:06.213Z,24.30
2022-09-22T20:46:13.598Z,24.35
2022-09-22T20:51:20.597Z,24.40
2022-09-22T20:56:27.793Z,24.43
2022-09-22T21:01:35.055Z,24.48
2022-09-22T21:06:42.174Z,24.56
2022-09-22T21:11:49.425Z,24.62
2022-09-22T21:16:56.642Z,24.66
2022-09-22T21:22:03.861Z,24.77
2022-09-22T21:27:11.141Z,24.91
2022-09-22T21:32:18.362Z,24.97
2022-09-22T21:37:25.566Z,25.03
2022-09-22T21:42:32.757Z,25.13
2022-09-22T21:47:39.929Z,25.18
2022-09-22T21:52:47.138Z,25.27
2022-09-22T21:57:54.371Z,25.36
2022-09-22T22:03:01.550Z,25.46
2022-09-22T22:08:08.747Z,25.61
2022-09-22T22:13:15.979Z,25.63
2022-09-22T22:18:23.167Z,25.68
2022-09-22T22:23:30.386Z,25.74
2022-09-22T22:28:37.562Z,25.77
2022-09-22T22:33:44.744Z,25.88
2022-09-22T22:38:51.981Z,25.91
2022-09-22T22:43:59.174Z,25.98
2022-09-22T22:49:06.361Z,26.02
2022-09-22T22:54:13.591Z,26.05
2022-09-22T22:59:20.848Z,26.12
2022-09-22T23:04:28.003Z,26.19
2022-09-22T23:09:35.178Z,26.22
2022-09-22T23:14:42.441Z,26.24
2022-09-22T23:19:49.665Z,26.22
2022-09-22T23:24:56.928Z,26.29
2022-09-22T23:30:04.240Z,26.24
2022-09-22T23:35:11.328Z,26.31
2022-09-22T23:40:18.571Z,26.31
2022-09-22T23:45:25.813Z,26.38
2022-09-22T23:50:33.054Z,26.39
2022-09-22T23:55:40.260Z,26.42
